createdAt,value
2018-02-07T00:01:20.617Z,24.90
2018-02-07T00:03:48.886Z,24.77
2018-02-07T00:06:18.645Z,23.30
2018-02-07T00:08:46.891Z,24.60
2018-02-07T00:11:15.158Z,23.33
2018-02-07T00:13:43.464Z,25.20
2018-02-07T00:16:12.473Z,24.40
2018-02-07T00:18:41.181Z,23.87
2018-02-07T00:21:09.433Z,24.73
2018-02-07T00:23:37.673Z,23.87
2018-02-07T00:26:05.945Z,22.43
2018-02-07T00:28:34.193Z,22.47
2018-02-07T00:31:02.994Z,22.17
2018-02-07T00:33:31.271Z,23.70
2018-02-07T00:35:59.526Z,24.27
2018-02-07T00:38:27.782Z,24.40
2018-02-07T00:43:30.702Z,24.83
2018-02-07T00:45:58.973Z,24.20
2018-02-07T00:48:27.222Z,22.63
2018-02-07T00:50:56.250Z,22.47
2018-02-07T00:53:24.590Z,22.93
2018-02-07T00:55:53.614Z,21.97
2018-02-07T00:58:21.866Z,22.43
2018-02-07T01:00:50.329Z,23.87
2018-02-07T01:03:18.589Z,22.30
2018-02-07T01:05:46.830Z,23.67
2018-02-07T01:08:15.110Z,23.00
2018-02-07T01:10:43.375Z,21.97
2018-02-07T01:13:11.614Z,22.63
2018-02-07T01:15:39.898Z,23.60
2018-02-07T01:18:08.354Z,22.57
2018-02-07T01:20:36.613Z,24.00
2018-02-07T01:23:04.935Z,24.10
2018-02-07T01:25:33.190Z,23.27
2018-02-07T01:28:01.450Z,23.33
2018-02-07T01:30:29.727Z,23.03
2018-02-07T01:32:58.512Z,24.27
2018-02-07T01:35:26.742Z,22.83
2018-02-07T01:37:56.106Z,23.70
2018-02-07T01:40:24.366Z,22.83
2018-02-07T01:42:52.618Z,23.70
2018-02-07T01:45:21.228Z,23.77
2018-02-07T01:47:49.479Z,24.17
2018-02-07T01:50:17.727Z,24.30
2018-02-07T01:52:47.226Z,22.83
2018-02-07T01:55:16.246Z,22.37
2018-02-07T01:57:44.498Z,23.37
2018-02-07T02:00:12.778Z,22.67
2018-02-07T02:02:41.111Z,21.73
2018-02-07T02:05:09.358Z,24.40
2018-02-07T02:07:37.863Z,22.70
2018-02-07T02:10:06.119Z,23.00
2018-02-07T02:12:34.366Z,25.20
2018-02-07T02:15:02.642Z,24.70
2018-02-07T02:17:31.670Z,23.60
2018-02-07T02:19:59.922Z,24.37
2018-02-07T02:22:28.202Z,21.47
2018-02-07T02:24:56.451Z,22.03
2018-02-07T02:27:24.702Z,22.47
2018-02-07T02:29:53.170Z,22.90
2018-02-07T02:32:21.593Z,23.43
2018-02-07T02:34:50.168Z,22.40
2018-02-07T02:37:18.442Z,25.50
2018-02-07T02:39:46.702Z,23.20
2018-02-07T02:42:14.950Z,22.87
2018-02-07T02:44:44.422Z,21.73
2018-02-07T02:47:13.450Z,19.67
2018-02-07T02:49:41.698Z,21.20
2018-02-07T02:52:10.162Z,24.33
2018-02-07T02:54:38.415Z,23.90
2018-02-07T02:57:06.663Z,24.40
2018-02-07T02:59:35.038Z,23.63
2018-02-07T03:02:03.291Z,23.73
2018-02-07T03:04:31.534Z,24.40
2018-02-07T03:06:59.810Z,24.07
2018-02-07T03:09:32.270Z,24.03
2018-02-07T03:12:00.718Z,24.57
2018-02-07T03:14:28.969Z,25.73
2018-02-07T03:16:57.994Z,23.80
2018-02-07T03:19:26.270Z,23.87
2018-02-07T03:21:54.521Z,22.27
2018-02-07T03:24:23.994Z,24.07
2018-02-07T03:26:52.274Z,22.13
2018-02-07T03:29:20.522Z,23.30
2018-02-07T03:31:48.778Z,24.00
2018-02-07T03:34:17.287Z,22.50
2018-02-07T03:36:45.922Z,23.70
2018-02-07T03:39:14.946Z,22.70
2018-02-07T03:41:44.366Z,22.70
2018-02-07T03:44:12.625Z,23.83
2018-02-07T03:46:40.878Z,22.00
2018-02-07T03:49:09.153Z,22.97
2018-02-07T03:51:37.398Z,22.20
2018-02-07T03:54:05.646Z,22.17
2018-02-07T03:56:34.130Z,22.53
2018-02-07T03:59:02.386Z,23.13
2018-02-07T04:01:30.634Z,23.67
2018-02-07T04:03:59.678Z,23.90
2018-02-07T04:06:28.404Z,21.27
2018-02-07T04:08:56.674Z,23.70
2018-02-07T04:11:25.074Z,24.03
2018-02-07T04:13:54.097Z,23.73
2018-02-07T04:16:22.347Z,22.53
2018-02-07T04:18:50.879Z,22.43
2018-02-07T04:21:19.130Z,24.17
2018-02-07T04:23:47.380Z,23.00
2018-02-07T04:26:15.658Z,25.60
2018-02-07T04:28:44.675Z,23.27
2018-02-07T04:31:12.922Z,23.63
2018-02-07T04:33:41.410Z,24.33
2018-02-07T04:36:10.437Z,23.70
2018-02-07T04:38:38.850Z,23.40
2018-02-07T04:41:07.522Z,23.87
2018-02-07T04:43:35.818Z,23.83
2018-02-07T04:46:04.070Z,25.60
2018-02-07T04:48:32.346Z,23.67
2018-02-07T04:51:00.607Z,21.93
2018-02-07T04:53:28.890Z,22.77
2018-02-07T04:55:57.154Z,22.60
2018-02-07T04:58:25.518Z,23.27
2018-02-07T05:00:54.530Z,22.93
2018-02-07T05:03:23.223Z,24.10
2018-02-07T05:05:51.541Z,22.90
2018-02-07T05:08:19.797Z,22.57
2018-02-07T05:10:48.070Z,24.03
2018-02-07T05:13:16.326Z,21.97
2018-02-07T05:15:44.596Z,23.03
2018-02-07T05:18:12.874Z,21.77
2018-02-07T05:20:41.134Z,21.80
2018-02-07T05:23:09.390Z,23.20
2018-02-07T05:25:38.763Z,22.73
2018-02-07T05:28:08.192Z,23.13
2018-02-07T05:30:36.440Z,22.90
2018-02-07T05:33:04.718Z,23.37
2018-02-07T05:35:32.970Z,24.80
2018-02-07T05:38:01.223Z,23.07
2018-02-07T05:40:29.872Z,23.27
2018-02-07T05:42:58.103Z,22.63
2018-02-07T05:45:29.603Z,25.07
2018-02-07T05:47:58.092Z,24.50
2018-02-07T05:50:26.339Z,26.03
2018-02-07T05:52:54.621Z,23.40
2018-02-07T05:55:22.886Z,24.03
2018-02-07T05:57:51.133Z,23.70
2018-02-07T06:00:19.386Z,26.47
2018-02-07T06:02:47.665Z,25.17
2018-02-07T06:05:16.690Z,22.60
2018-02-07T06:07:44.950Z,23.00
2018-02-07T06:10:13.482Z,24.10
2018-02-07T06:12:41.729Z,20.90
2018-02-07T06:15:10.019Z,24.03
2018-02-07T06:17:38.295Z,24.03
2018-02-07T06:20:06.554Z,24.40
2018-02-07T06:22:34.903Z,24.03
2018-02-07T06:25:03.162Z,23.30
2018-02-07T06:27:31.414Z,23.23
2018-02-07T06:29:59.671Z,22.93
2018-02-07T06:32:28.266Z,22.10
2018-02-07T06:34:56.557Z,26.10
2018-02-07T06:37:24.786Z,22.63
2018-02-07T06:39:53.058Z,25.37
2018-02-07T06:42:22.642Z,23.33
2018-02-07T06:44:50.894Z,24.37
2018-02-07T06:47:19.273Z,25.67
2018-02-07T06:49:47.502Z,24.20
2018-02-07T06:52:15.754Z,24.10
2018-02-07T06:54:44.538Z,25.70
2018-02-07T06:57:12.793Z,24.00
2018-02-07T06:59:41.169Z,22.83
2018-02-07T07:02:09.434Z,25.57
2018-02-07T07:04:37.695Z,26.17
2018-02-07T07:07:05.957Z,24.93
2018-02-07T07:09:34.242Z,23.60
2018-02-07T07:12:02.502Z,24.80
2018-02-07T07:14:30.762Z,23.90
2018-02-07T07:16:59.411Z,24.23
2018-02-07T07:19:27.658Z,24.53
2018-02-07T07:21:55.910Z,23.27
2018-02-07T07:24:24.190Z,24.30
2018-02-07T07:26:53.340Z,25.47
2018-02-07T07:29:21.586Z,24.60
2018-02-07T07:31:49.866Z,25.27
2018-02-07T07:34:18.130Z,25.33
2018-02-07T07:36:46.390Z,24.60
2018-02-07T07:39:15.851Z,27.47
2018-02-07T07:41:44.098Z,26.90
2018-02-07T07:44:13.030Z,25.10
2018-02-07T07:46:41.318Z,25.80
2018-02-07T07:49:09.569Z,26.63
2018-02-07T07:51:37.818Z,26.60
2018-02-07T07:54:06.098Z,25.27
2018-02-07T07:56:34.350Z,24.90
2018-02-07T07:59:03.365Z,24.90
2018-02-07T08:01:31.814Z,26.53
2018-02-07T08:04:00.078Z,25.10
2018-02-07T08:06:28.332Z,24.63
2018-02-07T08:08:56.936Z,25.60
2018-02-07T08:11:25.954Z,26.70
2018-02-07T08:13:54.210Z,25.90
2018-02-07T08:16:22.486Z,26.60
2018-02-07T08:18:50.738Z,27.60
2018-02-07T08:21:19.015Z,30.67
2018-02-07T08:23:47.610Z,29.43
2018-02-07T08:26:15.854Z,30.80
2018-02-07T08:28:44.202Z,31.30
2018-02-07T08:31:13.245Z,29.50
2018-02-07T08:33:41.732Z,29.97
2018-02-07T08:36:09.961Z,26.47
2018-02-07T08:38:38.239Z,28.87
2018-02-07T08:41:06.530Z,29.60
2018-02-07T08:43:34.774Z,29.13
2018-02-07T08:46:04.442Z,28.20
2018-02-07T08:48:32.683Z,25.83
2018-02-07T08:51:00.939Z,27.67
2018-02-07T08:53:29.292Z,27.10
2018-02-07T08:55:57.523Z,30.00
2018-02-07T08:58:25.774Z,27.40
2018-02-07T09:00:54.051Z,27.70
2018-02-07T09:03:23.061Z,27.60
2018-02-07T09:05:51.321Z,26.80
2018-02-07T09:08:20.153Z,26.30
2018-02-07T09:10:48.406Z,27.33
2018-02-07T09:13:16.655Z,27.03
2018-02-07T09:15:44.934Z,28.27
2018-02-07T09:18:13.950Z,29.87
2018-02-07T09:20:42.202Z,29.50
2018-02-07T09:23:10.478Z,29.23
2018-02-07T09:25:38.734Z,28.40
2018-02-07T09:28:06.986Z,28.80
2018-02-07T09:30:35.718Z,28.67
2018-02-07T09:33:03.969Z,29.93
2018-02-07T09:35:32.226Z,28.43
2018-02-07T09:38:00.502Z,29.00
2018-02-07T09:40:28.759Z,27.37
2018-02-07T09:42:57.010Z,28.63
2018-02-07T09:45:25.290Z,28.97
2018-02-07T09:47:53.871Z,26.60
2018-02-07T09:50:22.890Z,28.13
2018-02-07T09:52:51.274Z,27.80
2018-02-07T09:55:19.538Z,28.53
2018-02-07T09:57:47.790Z,29.13
2018-02-07T10:00:16.074Z,26.27
2018-02-07T10:02:45.094Z,28.07
2018-02-07T10:05:14.339Z,26.00
2018-02-07T10:07:42.618Z,27.17
2018-02-07T10:10:10.874Z,27.60
2018-02-07T10:12:39.158Z,26.27
2018-02-07T10:15:07.735Z,28.40
2018-02-07T10:17:36.004Z,30.00
2018-02-07T10:20:04.262Z,27.10
2018-02-07T10:22:32.538Z,28.20
2018-02-07T10:25:00.790Z,26.60
2018-02-07T10:27:29.805Z,27.93
2018-02-07T10:29:58.081Z,28.00
2018-02-07T10:32:26.330Z,28.30
2018-02-07T10:34:54.590Z,27.27
2018-02-07T10:37:23.094Z,27.23
2018-02-07T10:39:51.346Z,23.83
2018-02-07T10:42:19.593Z,27.90
2018-02-07T10:44:47.873Z,30.47
2018-02-07T10:47:16.127Z,27.80
2018-02-07T10:49:44.574Z,28.70
2018-02-07T10:52:13.745Z,27.10
2018-02-07T10:54:41.983Z,26.97
2018-02-07T10:57:10.227Z,27.57
2018-02-07T10:59:39.073Z,26.70
2018-02-07T11:02:07.327Z,28.73
2018-02-07T11:04:35.590Z,26.77
2018-02-07T11:07:03.878Z,26.43
2018-02-07T11:09:32.122Z,30.13
2018-02-07T11:12:00.379Z,30.63
2018-02-07T11:14:28.649Z,29.53
2018-02-07T11:16:56.903Z,28.13
2018-02-07T11:19:25.167Z,30.03
2018-02-07T11:21:53.873Z,27.20
2018-02-07T11:24:22.207Z,29.73
2018-02-07T11:26:51.224Z,26.60
2018-02-07T11:29:20.672Z,31.93
2018-02-07T11:31:48.926Z,28.33
2018-02-07T11:34:17.176Z,29.27
2018-02-07T11:36:45.454Z,28.53
2018-02-07T11:39:13.703Z,27.70
2018-02-07T11:41:42.722Z,27.20
2018-02-07T11:44:11.135Z,26.20
2018-02-07T11:46:39.473Z,27.60
2018-02-07T11:49:07.734Z,28.67
2018-02-07T11:51:36.242Z,28.27
2018-02-07T11:54:05.127Z,28.67
2018-02-07T11:56:33.378Z,28.57
2018-02-07T11:59:02.057Z,29.30
2018-02-07T12:01:30.296Z,27.57
2018-02-07T12:03:58.551Z,28.23
2018-02-07T12:06:26.890Z,29.87
2018-02-07T12:08:55.153Z,27.13
2018-02-07T12:11:23.408Z,28.10
2018-02-07T12:13:51.705Z,28.20
2018-02-07T12:16:19.979Z,29.70
2018-02-07T12:18:48.278Z,29.73
2018-02-07T12:21:16.558Z,28.63
2018-02-07T12:23:44.866Z,27.70
2018-02-07T12:26:13.500Z,30.83
2018-02-07T12:28:41.950Z,31.37
2018-02-07T12:31:10.206Z,30.60
2018-02-07T12:33:38.481Z,28.40
2018-02-07T12:36:06.758Z,30.17
2018-02-07T12:38:35.105Z,31.60
2018-02-07T12:41:03.346Z,28.93
2018-02-07T12:43:31.623Z,31.10
2018-02-07T12:45:59.885Z,32.20
2018-02-07T12:48:28.142Z,29.37
2018-02-07T12:50:56.755Z,30.83
2018-02-07T12:53:25.432Z,31.40
2018-02-07T12:55:54.586Z,30.20
2018-02-07T12:58:22.870Z,28.70
2018-02-07T13:00:51.142Z,30.77
2018-02-07T13:03:20.162Z,30.50
2018-02-07T13:05:48.498Z,29.57
2018-02-07T13:08:16.713Z,32.00
2018-02-07T13:10:44.965Z,30.00
2018-02-07T13:13:14.078Z,29.90
2018-02-07T13:15:42.342Z,27.40
2018-02-07T13:18:11.618Z,30.60
2018-02-07T13:20:40.022Z,27.90
2018-02-07T13:23:09.043Z,30.17
2018-02-07T13:25:37.306Z,28.40
2018-02-07T13:28:05.623Z,30.37
2018-02-07T13:30:33.870Z,30.77
2018-02-07T13:33:02.130Z,27.87
2018-02-07T13:35:30.686Z,27.73
2018-02-07T13:37:59.080Z,26.70
2018-02-07T13:40:27.314Z,27.67
2018-02-07T13:42:55.595Z,26.70
2018-02-07T13:45:24.599Z,28.93
2018-02-07T13:47:52.858Z,28.73
2018-02-07T13:50:21.218Z,29.47
2018-02-07T13:52:49.477Z,29.67
2018-02-07T13:55:17.950Z,28.87
2018-02-07T13:57:47.092Z,28.07
2018-02-07T14:00:15.342Z,27.37
2018-02-07T14:02:43.602Z,27.90
2018-02-07T14:05:11.886Z,27.00
2018-02-07T14:07:40.154Z,29.30
2018-02-07T14:10:09.183Z,30.50
2018-02-07T14:12:38.441Z,30.53
2018-02-07T14:15:08.634Z,29.30
2018-02-07T14:17:37.019Z,27.53
2018-02-07T14:20:06.559Z,28.33
2018-02-07T14:22:34.818Z,25.60
2018-02-07T14:25:04.010Z,24.77
2018-02-07T14:27:33.326Z,26.90
2018-02-07T14:30:02.375Z,29.50
2018-02-07T14:32:32.818Z,25.17
2018-02-07T14:35:01.360Z,26.33
2018-02-07T14:37:29.610Z,27.30
2018-02-07T14:39:58.626Z,26.47
2018-02-07T14:42:27.062Z,28.07
2018-02-07T14:45:00.559Z,28.30
2018-02-07T14:47:28.836Z,27.87
2018-02-07T14:49:57.094Z,25.87
2018-02-07T14:52:25.389Z,26.23
2018-02-07T14:54:53.722Z,30.23
2018-02-07T14:57:23.063Z,26.93
2018-02-07T14:59:51.442Z,27.47
2018-02-07T15:02:19.829Z,27.40
2018-02-07T15:04:48.082Z,26.37
2018-02-07T15:07:16.334Z,27.83
2018-02-07T15:09:44.618Z,29.20
2018-02-07T15:12:12.879Z,26.10
2018-02-07T15:14:41.133Z,26.70
2018-02-07T15:17:10.178Z,25.70
2018-02-07T15:19:38.460Z,26.50
2018-02-07T15:22:06.881Z,26.33
2018-02-07T15:24:36.562Z,26.20
2018-02-07T15:27:04.849Z,26.10
2018-02-07T15:29:33.111Z,25.23
2018-02-07T15:32:01.486Z,27.60
2018-02-07T15:34:29.722Z,26.50
2018-02-07T15:36:58.059Z,27.03
2018-02-07T15:39:26.462Z,26.50
2018-02-07T15:41:55.477Z,25.17
2018-02-07T15:44:23.814Z,28.03
2018-02-07T15:46:52.142Z,29.50
2018-02-07T15:49:20.406Z,29.33
2018-02-07T15:51:48.659Z,27.80
2018-02-07T15:54:17.714Z,29.10
2018-02-07T15:56:46.323Z,25.37
2018-02-07T15:59:14.872Z,28.60
2018-02-07T16:01:43.130Z,27.03
2018-02-07T16:04:11.378Z,28.83
2018-02-07T16:06:39.632Z,27.50
2018-02-07T16:09:08.318Z,28.07
2018-02-07T16:11:36.586Z,25.43
2018-02-07T16:14:04.842Z,27.00
2018-02-07T16:16:33.118Z,25.50
2018-02-07T16:19:01.366Z,27.40
2018-02-07T16:21:29.618Z,26.97
2018-02-07T16:23:57.926Z,27.93
2018-02-07T16:26:26.177Z,27.07
2018-02-07T16:28:54.634Z,28.20
2018-02-07T16:31:23.199Z,25.97
2018-02-07T16:33:51.699Z,28.20
2018-02-07T16:36:20.078Z,27.37
2018-02-07T16:38:48.355Z,26.73
2018-02-07T16:41:17.024Z,27.80
2018-02-07T16:43:45.253Z,27.97
2018-02-07T16:46:13.537Z,26.47
2018-02-07T16:48:41.826Z,26.73
2018-02-07T16:51:10.074Z,26.40
2018-02-07T16:53:39.418Z,25.87
2018-02-07T16:56:07.697Z,25.63
2018-02-07T16:58:35.954Z,25.07
2018-02-07T17:01:04.230Z,26.23
2018-02-07T17:03:33.482Z,25.63
2018-02-07T17:06:01.922Z,26.60
2018-02-07T17:08:31.180Z,26.70
2018-02-07T17:11:00.459Z,25.80
2018-02-07T17:13:28.840Z,27.80
2018-02-07T17:15:58.102Z,28.70
2018-02-07T17:18:27.466Z,28.33
2018-02-07T17:20:56.482Z,28.63
2018-02-07T17:23:24.767Z,31.30
2018-02-07T17:25:53.020Z,31.97
2018-02-07T17:28:22.496Z,30.57
2018-02-07T17:30:50.897Z,30.90
2018-02-07T17:33:19.918Z,29.60
2018-02-07T17:35:48.245Z,30.40
2018-02-07T17:38:16.623Z,31.53
2018-02-07T17:40:44.875Z,30.00
2018-02-07T17:43:13.122Z,32.13
2018-02-07T17:45:41.406Z,32.30
2018-02-07T17:48:09.658Z,32.07
2018-02-07T17:50:37.910Z,30.20
2018-02-07T17:53:06.371Z,30.57
2018-02-07T17:55:34.670Z,31.30
2018-02-07T17:58:03.074Z,31.70
2018-02-07T18:00:32.550Z,32.53
2018-02-07T18:03:01.031Z,30.47
2018-02-07T18:05:29.294Z,32.77
2018-02-07T18:07:57.554Z,31.57
2018-02-07T18:10:25.806Z,30.97
2018-02-07T18:12:54.242Z,33.37
2018-02-07T18:15:22.516Z,31.50
2018-02-07T18:17:50.766Z,35.57
2018-02-07T18:20:19.068Z,31.53
2018-02-07T18:22:47.537Z,33.00
2018-02-07T18:25:15.783Z,30.93
2018-02-07T18:27:44.210Z,31.90
2018-02-07T18:30:12.514Z,31.20
2018-02-07T18:32:40.770Z,29.43
2018-02-07T18:35:09.014Z,31.90
2018-02-07T18:37:37.301Z,32.63
2018-02-07T18:40:05.558Z,32.67
2018-02-07T18:42:33.803Z,32.73
2018-02-07T18:45:02.335Z,31.20
2018-02-07T18:47:30.594Z,31.20
2018-02-07T18:49:59.005Z,30.80
2018-02-07T18:52:27.282Z,30.30
2018-02-07T18:54:56.086Z,32.07
2018-02-07T18:57:24.336Z,31.00
2018-02-07T18:59:53.162Z,30.43
2018-02-07T19:02:22.502Z,31.20
2018-02-07T19:04:50.939Z,31.97
2018-02-07T19:07:19.333Z,30.43
2018-02-07T19:09:48.497Z,33.00
2018-02-07T19:12:16.746Z,32.03
2018-02-07T19:14:45.033Z,31.50
2018-02-07T19:17:13.283Z,30.27
2018-02-07T19:19:41.710Z,33.07
2018-02-07T19:22:10.123Z,32.30
2018-02-07T19:24:38.470Z,31.53
2018-02-07T19:27:06.719Z,33.90
2018-02-07T19:29:35.058Z,32.50
2018-02-07T19:32:03.305Z,32.77
2018-02-07T19:34:31.562Z,32.13
2018-02-07T19:36:59.836Z,33.10
2018-02-07T19:39:29.050Z,34.90
2018-02-07T19:41:57.426Z,32.27
2018-02-07T19:44:25.861Z,30.87
2018-02-07T19:46:55.107Z,30.87
2018-02-07T19:49:23.358Z,30.30
2018-02-07T19:51:52.872Z,31.90
2018-02-07T19:54:21.177Z,31.20
2018-02-07T19:56:50.162Z,31.57
2018-02-07T19:59:18.743Z,29.87
2018-02-07T20:01:47.602Z,30.20
2018-02-07T20:04:15.855Z,33.83
2018-02-07T20:06:44.330Z,31.87
2018-02-07T20:09:13.350Z,31.37
2018-02-07T20:11:41.598Z,33.63
2018-02-07T20:14:10.244Z,32.30
2018-02-07T20:16:38.486Z,31.83
2018-02-07T20:19:06.806Z,29.80
2018-02-07T20:21:35.078Z,29.63
2018-02-07T20:24:03.451Z,30.30
2018-02-07T20:26:31.701Z,31.60
2018-02-07T20:28:59.981Z,31.87
2018-02-07T20:31:28.234Z,30.70
2018-02-07T20:33:56.490Z,32.23
2018-02-07T20:36:25.622Z,31.27
2018-02-07T20:38:53.870Z,34.10
2018-02-07T20:41:22.966Z,30.43
2018-02-07T20:43:52.514Z,36.13
2018-02-07T20:46:20.774Z,33.77
2018-02-07T20:48:49.506Z,35.80
2018-02-07T20:51:17.786Z,33.73
2018-02-07T20:53:46.045Z,33.87
2018-02-07T20:56:14.300Z,33.30
2018-02-07T20:58:42.890Z,33.70
2018-02-07T21:01:11.138Z,32.60
2018-02-07T21:03:40.715Z,34.83
2018-02-07T21:06:12.220Z,33.70
2018-02-07T21:08:40.534Z,34.47
2018-02-07T21:11:08.914Z,32.07
2018-02-07T21:13:37.204Z,32.53
2018-02-07T21:16:05.450Z,32.90
2018-02-07T21:18:33.698Z,31.43
2018-02-07T21:21:02.317Z,30.63
2018-02-07T21:23:30.591Z,31.27
2018-02-07T21:26:01.034Z,31.57
2018-02-07T21:28:29.446Z,31.27
2018-02-07T21:30:58.738Z,31.47
2018-02-07T21:33:27.770Z,30.57
2018-02-07T21:35:57.043Z,33.53
2018-02-07T21:38:26.067Z,29.67
2018-02-07T21:40:56.534Z,32.80
2018-02-07T21:43:25.302Z,32.27
2018-02-07T21:45:53.550Z,33.70
2018-02-07T21:48:21.978Z,32.17
2018-02-07T21:50:50.386Z,32.60
2018-02-07T21:53:19.654Z,34.27
2018-02-07T21:55:52.100Z,32.83
2018-02-07T21:58:20.410Z,31.93
2018-02-07T22:00:48.790Z,34.77
2018-02-07T22:03:17.118Z,36.50
2018-02-07T22:05:45.546Z,33.73
2018-02-07T22:08:13.933Z,31.30
2018-02-07T22:10:42.392Z,32.40
2018-02-07T22:13:10.687Z,31.97
2018-02-07T22:15:39.068Z,33.40
2018-02-07T22:18:07.490Z,29.50
2018-02-07T22:20:36.500Z,32.57
2018-02-07T22:23:04.766Z,30.30
2018-02-07T22:25:33.090Z,29.60
2018-02-07T22:28:01.573Z,34.27
2018-02-07T22:30:30.911Z,38.30
2018-02-07T22:33:00.082Z,36.87
2018-02-07T22:35:29.478Z,37.40
2018-02-07T22:37:58.164Z,39.53
2018-02-07T22:40:26.562Z,34.73
2018-02-07T22:42:55.590Z,33.43
2018-02-07T22:45:23.914Z,32.17
2018-02-07T22:47:52.598Z,32.27
2018-02-07T22:50:20.860Z,33.67
2018-02-07T22:52:49.109Z,33.10
2018-02-07T22:55:17.462Z,35.33
2018-02-07T22:57:46.734Z,37.67
2018-02-07T23:00:15.110Z,35.90
2018-02-07T23:02:43.385Z,36.10
2018-02-07T23:05:11.695Z,34.87
2018-02-07T23:07:39.971Z,33.60
2018-02-07T23:10:09.073Z,33.97
2018-02-07T23:12:37.330Z,33.90
2018-02-07T23:15:05.581Z,33.03
2018-02-07T23:17:33.861Z,34.07
2018-02-07T23:20:02.102Z,32.70
2018-02-07T23:22:30.522Z,33.73
2018-02-07T23:24:58.990Z,35.13
2018-02-07T23:27:27.266Z,35.50
2018-02-07T23:29:55.506Z,33.67
2018-02-07T23:32:23.839Z,33.90
2018-02-07T23:34:52.119Z,32.57
2018-02-07T23:37:20.490Z,34.67
2018-02-07T23:39:48.766Z,35.87
2018-02-07T23:42:18.673Z,34.60
2018-02-07T23:44:46.906Z,31.97
2018-02-07T23:47:15.261Z,33.43
2018-02-07T23:49:44.282Z,33.13
2018-02-07T23:52:12.615Z,33.00
2018-02-07T23:54:41.114Z,33.93
2018-02-07T23:57:09.366Z,34.90
2018-02-07T23:59:37.650Z,35.87
